Time;durP1;ratioP1;P1;durP2;ratioP2;P2;SDS_P1;SDS_P2;PMS_P1;PMS_P2;Temp;Humidity;BMP_temperature;BMP_pressure;BME280_temperature;BME280_humidity;BME280_pressure;Samples;Min_cycle;Max_cycle;Signal;HPM_P1;HPM_P2
2021/09/21 00:01:26;;;;;;;11.03;9.93;;;;;;;;;;6381005;22;20368;-74
2021/09/21 00:06:56;;;;;;;10.63;9.03;;;;;;;;;;6383253;22;20365;-72
2021/09/21 00:09:22;;;;;;;10.00;9.00;;;;;;;;;;6395612;22;20370;-72
2021/09/21 00:11:48;;;;;;;10.03;9.03;;;;;;;;;;6391149;22;20431;-73
2021/09/21 00:14:14;;;;;;;9.90;8.87;;;;;;;;;;6381612;22;20370;-74
2021/09/21 00:16:40;;;;;;;10.23;8.83;;;;;;;;;;6380919;22;20418;-74
2021/09/21 00:19:06;;;;;;;9.90;8.90;;;;;;;;;;6381017;22;20367;-73
2021/09/21 00:21:32;;;;;;;8.90;8.00;;;;;;;;;;6380960;22;20818;-73
2021/09/21 00:23:58;;;;;;;13.20;8.80;;;;;;;;;;6380730;22;20356;-72
2021/09/21 00:26:24;;;;;;;10.30;8.57;;;;;;;;;;6380368;22;20513;-72
2021/09/21 00:28:50;;;;;;;10.97;9.70;;;;;;;;;;6370411;22;20410;-73
2021/09/21 00:31:18;;;;;;;10.57;8.20;;;;;;;;;;6380700;22;20787;-72
2021/09/21 00:36:47;;;;;;;9.93;8.10;;;;;;;;;;6380529;22;20445;-72
2021/09/21 00:39:13;;;;;;;9.17;8.27;;;;;;;;;;6380622;22;20368;-74
2021/09/21 00:41:40;;;;;;;9.50;8.50;;;;;;;;;;6380440;22;20386;-72
2021/09/21 00:44:06;;;;;;;10.37;7.97;;;;;;;;;;6370302;22;20387;-72
2021/09/21 00:46:33;;;;;;;9.00;7.53;;;;;;;;;;6380528;22;20374;-72
2021/09/21 00:52:03;;;;;;;8.97;8.07;;;;;;;;;;6380512;22;20882;-73
2021/09/21 00:54:29;;;;;;;8.70;6.33;;;;;;;;;;6370227;22;20383;-74
2021/09/21 00:56:55;;;;;;;7.60;6.73;;;;;;;;;;6369620;22;20442;-73
2021/09/21 00:59:21;;;;;;;8.63;7.53;;;;;;;;;;6369711;22;20439;-73
2021/09/21 01:01:48;;;;;;;9.43;8.50;;;;;;;;;;6380458;22;20371;-72
2021/09/21 01:04:15;;;;;;;8.40;7.60;;;;;;;;;;6380429;22;20734;-73
2021/09/21 01:06:41;;;;;;;11.87;7.60;;;;;;;;;;6369145;22;20378;-73
2021/09/21 01:09:16;;;;;;;9.20;8.23;;;;;;;;;;6380508;22;20363;-74
2021/09/21 01:11:44;;;;;;;8.90;7.47;;;;;;;;;;6369712;22;20379;-73
2021/09/21 01:14:10;;;;;;;9.50;7.60;;;;;;;;;;6380248;22;20360;-73
2021/09/21 01:16:36;;;;;;;13.67;8.50;;;;;;;;;;6380083;22;20414;-73
2021/09/21 01:22:06;;;;;;;11.17;8.37;;;;;;;;;;6380337;22;20371;-74
2021/09/21 01:24:33;;;;;;;15.03;8.63;;;;;;;;;;6370223;22;20387;-73
2021/09/21 01:26:59;;;;;;;9.40;8.33;;;;;;;;;;6369499;22;20430;-72
2021/09/21 01:29:25;;;;;;;10.67;8.20;;;;;;;;;;6380314;22;20458;-73
2021/09/21 01:31:51;;;;;;;10.77;7.97;;;;;;;;;;6380220;22;20681;-74
2021/09/21 01:37:22;;;;;;;11.60;7.13;;;;;;;;;;6380271;22;20471;-73
2021/09/21 01:39:48;;;;;;;9.13;7.77;;;;;;;;;;6369515;22;20412;-73
2021/09/21 01:42:14;;;;;;;8.27;7.40;;;;;;;;;;6379982;22;20371;-73
2021/09/21 01:44:40;;;;;;;9.73;7.47;;;;;;;;;;6380307;22;20860;-74
2021/09/21 01:47:06;;;;;;;9.10;7.60;;;;;;;;;;6369935;22;20713;-74
2021/09/21 01:52:32;;;;;;;11.53;9.23;;;;;;;;;;6307070;22;20897;-74
2021/09/21 01:58:15;;;;;;;9.80;8.30;;;;;;;;;;6369875;22;20414;-74
2021/09/21 02:00:44;;;;;;;9.37;8.37;;;;;;;;;;6380684;22;20371;-73
2021/09/21 02:03:10;;;;;;;8.83;7.30;;;;;;;;;;6380433;22;20834;-75
2021/09/21 02:05:36;;;;;;;9.13;8.00;;;;;;;;;;6341822;22;20467;-75
2021/09/21 02:08:02;;;;;;;8.23;7.40;;;;;;;;;;6369844;22;20383;-73
2021/09/21 02:10:28;;;;;;;9.93;8.13;;;;;;;;;;6380396;22;20364;-73
2021/09/21 02:12:54;;;;;;;8.80;7.50;;;;;;;;;;6369811;22;20371;-72
2021/09/21 02:15:21;;;;;;;8.17;7.33;;;;;;;;;;6380186;22;20714;-73
2021/09/21 02:17:47;;;;;;;11.10;9.60;;;;;;;;;;6369787;22;20737;-73
2021/09/21 02:20:13;;;;;;;10.10;9.10;;;;;;;;;;6369798;22;20700;-73
2021/09/21 02:22:39;;;;;;;9.60;7.97;;;;;;;;;;6380153;22;20417;-72
2021/09/21 02:25:06;;;;;;;9.50;8.60;;;;;;;;;;6380199;22;20370;-73
2021/09/21 02:27:32;;;;;;;9.60;8.60;;;;;;;;;;6379727;22;20805;-73
2021/09/21 02:29:58;;;;;;;9.00;8.10;;;;;;;;;;6371023;22;20372;-73
2021/09/21 02:32:24;;;;;;;9.70;8.27;;;;;;;;;;6381895;22;20363;-74
2021/09/21 02:34:50;;;;;;;10.13;9.00;;;;;;;;;;6381871;22;20810;-74
2021/09/21 02:37:17;;;;;;;11.20;10.10;;;;;;;;;;6381873;22;20399;-74
2021/09/21 02:39:43;;;;;;;13.43;9.30;;;;;;;;;;6381957;22;20434;-74
2021/09/21 02:42:09;;;;;;;11.17;10.07;;;;;;;;;;6371452;22;20375;-73
2021/09/21 02:44:36;;;;;;;9.40;8.43;;;;;;;;;;6381984;22;20426;-74
2021/09/21 02:47:03;;;;;;;9.73;8.83;;;;;;;;;;6382034;22;20363;-73
2021/09/21 02:52:32;;;;;;;9.40;8.50;;;;;;;;;;6381923;22;20420;-74
2021/09/21 02:54:58;;;;;;;9.80;8.77;;;;;;;;;;6371573;22;20786;-74
2021/09/21 02:57:24;;;;;;;10.23;8.53;;;;;;;;;;6381698;22;20375;-74
2021/09/21 02:59:50;;;;;;;11.00;9.93;;;;;;;;;;6385279;22;20355;-74
2021/09/21 03:02:17;;;;;;;9.83;8.83;;;;;;;;;;6388714;22;20453;-74
2021/09/21 03:07:52;;;;;;;9.40;8.40;;;;;;;;;;6381831;22;20424;-73
2021/09/21 03:18:06;;;;;;;10.93;9.00;;;;;;;;;;6381590;22;20366;-75
2021/09/21 03:20:33;;;;;;;9.33;8.43;;;;;;;;;;6371305;22;20379;-73
2021/09/21 03:22:59;;;;;;;10.07;9.07;;;;;;;;;;6381616;22;20439;-74
2021/09/21 03:25:25;;;;;;;8.30;7.50;;;;;;;;;;6381506;22;20844;-75
2021/09/21 03:27:50;;;;;;;11.23;8.80;;;;;;;;;;6381261;22;20423;-74
2021/09/21 03:30:16;;;;;;;10.30;9.17;;;;;;;;;;6381550;22;20375;-73
2021/09/21 03:32:42;;;;;;;11.17;8.90;;;;;;;;;;6381486;22;20355;-73
2021/09/21 03:35:09;;;;;;;11.40;8.70;;;;;;;;;;6381300;22;20479;-73
2021/09/21 03:37:35;;;;;;;13.23;9.47;;;;;;;;;;6381298;22;20726;-74
2021/09/21 03:40:01;;;;;;;10.37;9.37;;;;;;;;;;6370712;22;20405;-73
2021/09/21 03:42:27;;;;;;;9.83;8.83;;;;;;;;;;6381085;22;20810;-73
2021/09/21 03:44:53;;;;;;;8.87;7.97;;;;;;;;;;6381466;22;20366;-73
2021/09/21 03:47:19;;;;;;;11.83;9.30;;;;;;;;;;6381495;22;20367;-74
2021/09/21 03:52:49;;;;;;;9.73;8.80;;;;;;;;;;6381305;22;20362;-74
2021/09/21 03:55:16;;;;;;;11.60;8.70;;;;;;;;;;6381099;22;20456;-74
2021/09/21 03:57:42;;;;;;;11.73;8.10;;;;;;;;;;6370739;22;20432;-75
2021/09/21 04:00:08;;;;;;;9.23;8.30;;;;;;;;;;6370955;22;20379;-73
2021/09/21 04:02:34;;;;;;;10.90;9.80;;;;;;;;;;6381143;22;20368;-73
2021/09/21 04:08:04;;;;;;;10.27;9.10;;;;;;;;;;6381206;22;20719;-73
2021/09/21 04:10:30;;;;;;;8.73;7.83;;;;;;;;;;6381099;22;20355;-73
2021/09/21 04:12:56;;;;;;;10.30;9.23;;;;;;;;;;6380913;22;20463;-73
2021/09/21 04:15:22;;;;;;;10.27;9.20;;;;;;;;;;6381043;22;20671;-73
2021/09/21 04:17:48;;;;;;;10.07;9.07;;;;;;;;;;6381102;22;20848;-74
2021/09/21 04:23:17;;;;;;;10.20;9.03;;;;;;;;;;6381049;22;20377;-73
2021/09/21 04:25:43;;;;;;;10.93;9.33;;;;;;;;;;6380706;22;20724;-74
2021/09/21 04:28:09;;;;;;;10.97;9.23;;;;;;;;;;6380765;22;20379;-74
2021/09/21 04:30:35;;;;;;;12.30;9.00;;;;;;;;;;6381102;22;20391;-74
2021/09/21 04:33:01;;;;;;;9.93;9.03;;;;;;;;;;6380976;22;20367;-74
2021/09/21 04:38:31;;;;;;;12.80;9.40;;;;;;;;;;6381045;22;20841;-73
2021/09/21 04:40:57;;;;;;;10.07;8.43;;;;;;;;;;6380824;22;20368;-73
2021/09/21 04:43:23;;;;;;;11.60;9.03;;;;;;;;;;6370589;22;20466;-74
2021/09/21 04:45:49;;;;;;;10.87;8.80;;;;;;;;;;6342463;22;20452;-73
2021/09/21 04:48:15;;;;;;;8.80;8.00;;;;;;;;;;6380890;22;20358;-74
2021/09/21 04:50:41;;;;;;;10.87;9.73;;;;;;;;;;6380845;22;20375;-73
2021/09/21 04:53:07;;;;;;;10.47;9.47;;;;;;;;;;6380721;22;20427;-73
2021/09/21 04:55:33;;;;;;;15.43;9.90;;;;;;;;;;6380839;22;20575;-73
2021/09/21 04:57:59;;;;;;;12.63;10.03;;;;;;;;;;6380653;22;20371;-73
2021/09/21 05:00:25;;;;;;;14.57;9.37;;;;;;;;;;6380833;22;20680;-74
2021/09/21 05:02:51;;;;;;;12.03;9.97;;;;;;;;;;6380767;22;20367;-73
2021/09/21 05:08:20;;;;;;;10.47;9.40;;;;;;;;;;6380775;22;20370;-73
2021/09/21 05:10:46;;;;;;;10.77;9.40;;;;;;;;;;6380658;22;20363;-73
2021/09/21 05:13:13;;;;;;;10.67;9.57;;;;;;;;;;6369785;22;20380;-73
2021/09/21 05:15:39;;;;;;;10.93;9.00;;;;;;;;;;6377091;22;20467;-73
2021/09/21 05:18:05;;;;;;;10.43;9.03;;;;;;;;;;6369907;22;20391;-73
2021/09/21 05:23:34;;;;;;;9.60;8.70;;;;;;;;;;6380670;22;20374;-72
2021/09/21 05:26:00;;;;;;;12.50;9.73;;;;;;;;;;6369621;22;20371;-72
2021/09/21 05:28:26;;;;;;;11.47;10.10;;;;;;;;;;6380378;22;20466;-73
2021/09/21 05:30:52;;;;;;;11.00;9.33;;;;;;;;;;6380320;22;20372;-73
2021/09/21 05:33:18;;;;;;;10.43;8.87;;;;;;;;;;6380545;22;20367;-72
2021/09/21 05:38:48;;;;;;;11.80;10.40;;;;;;;;;;6380457;22;20370;-73
2021/09/21 05:41:14;;;;;;;10.80;9.70;;;;;;;;;;6370056;22;20390;-73
2021/09/21 05:43:40;;;;;;;9.77;8.70;;;;;;;;;;6380434;22;20367;-73
2021/09/21 05:46:06;;;;;;;11.57;10.37;;;;;;;;;;6380457;22;20352;-73
2021/09/21 05:48:32;;;;;;;10.97;9.97;;;;;;;;;;6380398;22;20757;-72
2021/09/21 05:54:01;;;;;;;10.73;9.63;;;;;;;;;;6380432;22;20408;-72
2021/09/21 05:56:27;;;;;;;10.17;8.93;;;;;;;;;;6380148;22;20884;-74
2021/09/21 05:58:53;;;;;;;10.17;9.10;;;;;;;;;;6380346;22;20359;-73
2021/09/21 06:01:19;;;;;;;9.90;8.90;;;;;;;;;;6342333;22;20406;-73
2021/09/21 06:03:46;;;;;;;9.97;8.93;;;;;;;;;;6380827;22;20367;-73
2021/09/21 06:06:12;;;;;;;9.57;8.67;;;;;;;;;;6382162;22;20698;-72
2021/09/21 06:08:38;;;;;;;10.00;9.00;;;;;;;;;;6382265;22;20363;-73
2021/09/21 06:11:04;;;;;;;11.53;9.87;;;;;;;;;;6382132;22;20433;-72
2021/09/21 06:13:30;;;;;;;10.27;9.20;;;;;;;;;;6372002;22;20371;-72
2021/09/21 06:15:56;;;;;;;9.73;8.73;;;;;;;;;;6382201;22;20450;-72
2021/09/21 06:18:22;;;;;;;12.23;9.40;;;;;;;;;;6372047;22;20367;-72
2021/09/21 06:23:51;;;;;;;9.83;8.90;;;;;;;;;;6382143;22;20374;-72
2021/09/21 06:26:17;;;;;;;12.20;9.20;;;;;;;;;;6381865;22;20425;-72
2021/09/21 06:28:43;;;;;;;10.63;8.73;;;;;;;;;;6382115;22;20378;-72
2021/09/21 06:31:11;;;;;;;12.10;8.30;;;;;;;;;;6382130;22;20442;-73
2021/09/21 06:33:37;;;;;;;9.63;8.73;;;;;;;;;;6382008;22;20412;-73
2021/09/21 06:39:06;;;;;;;10.23;9.23;;;;;;;;;;6382111;22;20855;-73
2021/09/21 06:41:32;;;;;;;10.00;9.00;;;;;;;;;;6371635;22;20681;-72
2021/09/21 06:43:58;;;;;;;9.30;7.93;;;;;;;;;;6382064;22;20410;-72
2021/09/21 06:46:24;;;;;;;9.00;8.20;;;;;;;;;;6381939;22;20822;-73
2021/09/21 06:48:50;;;;;;;9.60;7.80;;;;;;;;;;6381988;22;20359;-72
2021/09/21 06:54:20;;;;;;;8.93;8.10;;;;;;;;;;6381392;22;20362;-72
2021/09/21 06:56:46;;;;;;;9.00;8.10;;;;;;;;;;6381062;22;20419;-71
2021/09/21 06:59:11;;;;;;;9.00;8.20;;;;;;;;;;6380793;22;20822;-72
2021/09/21 07:01:37;;;;;;;11.17;8.67;;;;;;;;;;6370834;22;20414;-72
2021/09/21 07:04:03;;;;;;;8.60;7.80;;;;;;;;;;6381523;22;20814;-72
2021/09/21 07:09:33;;;;;;;13.20;8.67;;;;;;;;;;6381335;22;20374;-73
2021/09/21 07:12:00;;;;;;;8.57;7.67;;;;;;;;;;6380968;22;20382;-72
2021/09/21 07:14:26;;;;;;;9.37;7.97;;;;;;;;;;6370692;22;20384;-73
2021/09/21 07:16:52;;;;;;;9.13;8.20;;;;;;;;;;6380979;22;20419;-73
2021/09/21 07:19:18;;;;;;;7.87;7.10;;;;;;;;;;6381362;22;20352;-71
2021/09/21 07:24:49;;;;;;;7.93;7.13;;;;;;;;;;6373491;22;20814;-72
2021/09/21 07:27:15;;;;;;;9.63;8.63;;;;;;;;;;6370228;22;20439;-72
2021/09/21 07:29:41;;;;;;;11.60;7.33;;;;;;;;;;6342667;22;20717;-72
2021/09/21 07:32:07;;;;;;;8.87;8.17;;;;;;;;;;6381162;22;20363;-72
2021/09/21 07:34:33;;;;;;;9.20;8.40;;;;;;;;;;6380074;22;20420;-72
2021/09/21 07:36:59;;;;;;;9.23;7.53;;;;;;;;;;6370431;22;20430;-72
2021/09/21 07:39:25;;;;;;;8.60;7.80;;;;;;;;;;6370215;22;20375;-72
2021/09/21 07:41:52;;;;;;;7.97;7.27;;;;;;;;;;6381154;22;20412;-72
2021/09/21 07:44:18;;;;;;;9.50;6.87;;;;;;;;;;6370504;22;20443;-76
2021/09/21 07:46:44;;;;;;;8.20;7.40;;;;;;;;;;6342804;22;20407;-70
2021/09/21 07:49:10;;;;;;;10.07;8.00;;;;;;;;;;6371073;22;20395;-74
2021/09/21 07:54:39;;;;;;;7.60;6.77;;;;;;;;;;6379447;22;20460;-73
2021/09/21 07:57:05;;;;;;;8.03;6.67;;;;;;;;;;6379927;22;20423;-72
2021/09/21 07:59:31;;;;;;;7.90;7.10;;;;;;;;;;6379560;22;20468;-73
2021/09/21 08:01:57;;;;;;;8.37;7.50;;;;;;;;;;6369242;22;20387;-73
2021/09/21 08:04:23;;;;;;;8.00;7.20;;;;;;;;;;6380116;22;20370;-73
2021/09/21 08:09:53;;;;;;;7.93;7.20;;;;;;;;;;6380153;22;20539;-73
2021/09/21 08:12:19;;;;;;;7.43;6.83;;;;;;;;;;6379784;22;20462;-73
2021/09/21 08:14:48;;;;;;;8.67;7.87;;;;;;;;;;6369651;22;20379;-73
2021/09/21 08:17:14;;;;;;;7.97;6.90;;;;;;;;;;6379979;22;20395;-73
2021/09/21 08:19:40;;;;;;;7.30;6.60;;;;;;;;;;6379864;22;20431;-72
2021/09/21 08:25:12;;;;;;;8.30;7.50;;;;;;;;;;6379971;22;20681;-72
2021/09/21 08:27:38;;;;;;;8.70;7.90;;;;;;;;;;6379058;22;20439;-74
2021/09/21 08:30:05;;;;;;;8.43;7.53;;;;;;;;;;6369411;22;20386;-72
2021/09/21 08:32:32;;;;;;;8.60;7.80;;;;;;;;;;6341752;22;20390;-72
2021/09/21 08:40:47;;;;;;;8.60;7.80;;;;;;;;;;6378495;22;20881;-73
2021/09/21 08:43:13;;;;;;;7.93;7.23;;;;;;;;;;6378424;22;20360;-72
2021/09/21 08:45:39;;;;;;;7.27;6.67;;;;;;;;;;6340100;22;20429;-73
2021/09/21 08:48:05;;;;;;;10.30;7.30;;;;;;;;;;6378439;22;20420;-72
2021/09/21 08:50:31;;;;;;;7.60;6.90;;;;;;;;;;6367972;22;20698;-71
2021/09/21 08:52:57;;;;;;;14.50;6.60;;;;;;;;;;6378624;22;20414;-73
2021/09/21 08:55:23;;;;;;;7.43;6.73;;;;;;;;;;6378227;22;20410;-72
2021/09/21 08:57:50;;;;;;;7.53;6.70;;;;;;;;;;6378458;22;20703;-73
2021/09/21 09:00:26;;;;;;;6.90;6.30;;;;;;;;;;6341572;22;20434;-72
2021/09/21 09:03:06;;;;;;;8.23;7.30;;;;;;;;;;6340985;22;20395;-73
2021/09/21 09:05:45;;;;;;;8.13;7.43;;;;;;;;;;6379744;22;20420;-72
2021/09/21 09:08:11;;;;;;;7.87;7.00;;;;;;;;;;6369396;22;20698;-73
2021/09/21 09:10:38;;;;;;;8.30;7.50;;;;;;;;;;6379448;22;20359;-73
2021/09/21 09:13:06;;;;;;;7.63;6.77;;;;;;;;;;6379205;22;20371;-72
2021/09/21 09:15:32;;;;;;;6.80;6.10;;;;;;;;;;6379415;22;20739;-73
2021/09/21 09:17:59;;;;;;;7.80;7.20;;;;;;;;;;6368962;22;20375;-72
2021/09/21 09:20:36;;;;;;;8.00;7.17;;;;;;;;;;6368933;22;20376;-72
2021/09/21 09:23:02;;;;;;;6.20;5.60;;;;;;;;;;6341572;22;20390;-73
2021/09/21 09:25:28;;;;;;;6.47;5.97;;;;;;;;;;6379327;22;20481;-73
2021/09/21 09:27:54;;;;;;;8.23;6.30;;;;;;;;;;6379042;22;20995;-72
2021/09/21 09:30:22;;;;;;;6.97;6.27;;;;;;;;;;6379358;22;20725;-73
2021/09/21 09:32:52;;;;;;;6.13;5.63;;;;;;;;;;6379263;22;20371;-73
2021/09/21 09:41:35;;;;;;;6.37;5.87;;;;;;;;;;6380181;22;20905;-73
2021/09/21 09:44:11;;;;;;;7.20;6.53;;;;;;;;;;6380408;22;20420;-72
2021/09/21 09:46:42;;;;;;;6.93;6.33;;;;;;;;;;6380392;22;20351;-73
2021/09/21 09:49:10;;;;;;;7.53;6.83;;;;;;;;;;6380050;22;20458;-72
2021/09/21 09:51:43;;;;;;;6.77;6.17;;;;;;;;;;6369910;22;20378;-72
2021/09/21 09:54:09;;;;;;;7.70;7.00;;;;;;;;;;6370002;22;20383;-73
2021/09/21 09:56:35;;;;;;;7.93;7.13;;;;;;;;;;6380558;22;20467;-73
2021/09/21 09:59:01;;;;;;;7.00;6.40;;;;;;;;;;6340138;22;20479;-73
2021/09/21 10:01:27;;;;;;;6.37;5.87;;;;;;;;;;6341227;22;20402;-73
2021/09/21 10:03:53;;;;;;;7.03;5.77;;;;;;;;;;6379990;22;20367;-73
2021/09/21 10:06:19;;;;;;;7.00;6.40;;;;;;;;;;6380172;22;20375;-73
2021/09/21 10:08:46;;;;;;;5.57;5.07;;;;;;;;;;6377377;22;20382;-72
2021/09/21 10:11:12;;;;;;;6.80;6.10;;;;;;;;;;6379879;22;20406;-75
2021/09/21 10:13:38;;;;;;;7.23;6.57;;;;;;;;;;6379276;22;20363;-72
2021/09/21 10:16:04;;;;;;;6.70;6.10;;;;;;;;;;6342695;22;20426;-73
2021/09/21 10:18:30;;;;;;;6.30;5.77;;;;;;;;;;6381579;22;20727;-72
2021/09/21 10:20:58;;;;;;;6.83;6.33;;;;;;;;;;6380816;22;20405;-72
2021/09/21 10:23:30;;;;;;;6.70;6.00;;;;;;;;;;6380856;22;20707;-72
2021/09/21 10:25:56;;;;;;;6.10;5.60;;;;;;;;;;6370222;22;20374;-73
2021/09/21 10:28:22;;;;;;;6.57;6.07;;;;;;;;;;6342181;22;20398;-73
2021/09/21 10:30:52;;;;;;;5.93;5.40;;;;;;;;;;6381028;22;20363;-71
2021/09/21 10:33:19;;;;;;;5.67;5.27;;;;;;;;;;6370296;22;20383;-72
2021/09/21 10:35:49;;;;;;;6.00;5.50;;;;;;;;;;6370492;22;20830;-73
2021/09/21 10:41:18;;;;;;;7.63;7.03;;;;;;;;;;6380535;22;20695;-74
2021/09/21 10:43:45;;;;;;;6.30;5.90;;;;;;;;;;6380975;22;20367;-73
2021/09/21 10:46:16;;;;;;;6.57;6.07;;;;;;;;;;6370107;22;20370;-73
2021/09/21 10:48:44;;;;;;;5.80;5.40;;;;;;;;;;6369516;22;20379;-72
2021/09/21 10:51:11;;;;;;;6.60;6.13;;;;;;;;;;6379717;22;20355;-73
2021/09/21 10:53:37;;;;;;;6.70;6.23;;;;;;;;;;6380042;22;20458;-73
2021/09/21 10:56:07;;;;;;;7.07;6.47;;;;;;;;;;6379867;22;20441;-72
2021/09/21 10:58:33;;;;;;;6.90;6.07;;;;;;;;;;6369747;22;20451;-74
2021/09/21 11:00:59;;;;;;;5.70;5.30;;;;;;;;;;6380164;22;20439;-74
2021/09/21 11:03:26;;;;;;;5.73;5.33;;;;;;;;;;6380088;22;20391;-74
2021/09/21 11:05:54;;;;;;;7.40;6.80;;;;;;;;;;6369862;22;20435;-73
2021/09/21 11:11:24;;;;;;;7.50;6.90;;;;;;;;;;6380075;22;20428;-73
2021/09/21 11:13:51;;;;;;;7.10;6.60;;;;;;;;;;6381211;22;20368;-73
2021/09/21 11:16:17;;;;;;;6.57;5.97;;;;;;;;;;6370844;22;20479;-75
2021/09/21 11:18:53;;;;;;;6.77;6.27;;;;;;;;;;6381233;22;20706;-73
2021/09/21 11:21:19;;;;;;;6.13;5.63;;;;;;;;;;6381308;22;20363;-73
2021/09/21 11:23:45;;;;;;;7.10;6.50;;;;;;;;;;6381149;22;20447;-74
2021/09/21 11:26:12;;;;;;;6.20;5.70;;;;;;;;;;6379727;22;20500;-74
2021/09/21 11:28:42;;;;;;;6.20;5.70;;;;;;;;;;6378498;22;20363;-72
2021/09/21 11:31:08;;;;;;;6.80;5.80;;;;;;;;;;6380134;22;20351;-74
2021/09/21 11:33:35;;;;;;;6.50;5.80;;;;;;;;;;6369131;22;20467;-72
2021/09/21 11:36:04;;;;;;;6.43;5.93;;;;;;;;;;6368681;22;20466;-73
2021/09/21 11:41:34;;;;;;;8.47;7.77;;;;;;;;;;6379473;22;20462;-74
2021/09/21 11:44:03;;;;;;;7.60;6.80;;;;;;;;;;6379374;22;20403;-73
2021/09/21 11:46:30;;;;;;;7.37;6.67;;;;;;;;;;6379340;22;20410;-73
2021/09/21 11:48:57;;;;;;;6.60;6.00;;;;;;;;;;6368668;22;20464;-73
2021/09/21 11:57:11;;;;;;;10.40;7.30;;;;;;;;;;6378939;22;20470;-72
2021/09/21 11:59:37;;;;;;;8.60;7.70;;;;;;;;;;6379402;22;20363;-72
2021/09/21 12:02:04;;;;;;;7.13;6.50;;;;;;;;;;6378845;22;20379;-73
2021/09/21 12:04:33;;;;;;;8.43;7.60;;;;;;;;;;6341077;22;20394;-72
2021/09/21 12:07:00;;;;;;;7.40;6.80;;;;;;;;;;6368843;22;20395;-71
2021/09/21 12:09:26;;;;;;;7.57;6.97;;;;;;;;;;6379301;22;20450;-72
2021/09/21 12:11:52;;;;;;;7.70;7.00;;;;;;;;;;6379287;22;20425;-72
2021/09/21 12:14:18;;;;;;;6.90;6.40;;;;;;;;;;6379520;22;20735;-73
2021/09/21 12:16:51;;;;;;;8.50;7.80;;;;;;;;;;6368907;22;20435;-73
2021/09/21 12:19:18;;;;;;;8.00;7.40;;;;;;;;;;6379414;22;20794;-73
2021/09/21 12:21:44;;;;;;;8.03;7.33;;;;;;;;;;6368968;22;20367;-74
2021/09/21 12:24:11;;;;;;;8.73;7.87;;;;;;;;;;6379305;22;20371;-73
2021/09/21 12:26:37;;;;;;;7.10;6.40;;;;;;;;;;6340756;22;20480;-73
2021/09/21 12:29:07;;;;;;;7.83;7.13;;;;;;;;;;6340704;22;20394;-73
2021/09/21 12:31:34;;;;;;;7.20;6.60;;;;;;;;;;6340324;22;20390;-75
2021/09/21 12:34:07;;;;;;;7.70;7.10;;;;;;;;;;6379005;22;20409;-75
2021/09/21 12:36:42;;;;;;;6.60;6.00;;;;;;;;;;6378716;22;20423;-74
2021/09/21 12:42:12;;;;;;;7.47;6.87;;;;;;;;;;6378990;22;20504;-74
2021/09/21 12:44:39;;;;;;;7.23;6.57;;;;;;;;;;6379341;22;20398;-74
2021/09/21 12:47:06;;;;;;;6.60;6.00;;;;;;;;;;6379228;22;20374;-74
2021/09/21 12:49:33;;;;;;;7.70;7.10;;;;;;;;;;6298355;22;20418;-75
2021/09/21 12:52:00;;;;;;;7.80;7.10;;;;;;;;;;6368513;22;20384;-74
2021/09/21 12:54:27;;;;;;;9.70;7.80;;;;;;;;;;6378958;22;20901;-75
2021/09/21 12:56:56;;;;;;;7.90;7.10;;;;;;;;;;6368309;22;20890;-74
2021/09/21 12:59:25;;;;;;;7.90;7.27;;;;;;;;;;6378862;22;20367;-74
2021/09/21 13:01:53;;;;;;;9.03;8.20;;;;;;;;;;6368733;22;20376;-75
2021/09/21 13:04:19;;;;;;;9.20;8.40;;;;;;;;;;6368690;22;20371;-75
2021/09/21 13:06:47;;;;;;;8.90;8.10;;;;;;;;;;6368542;22;20434;-75
2021/09/21 13:12:17;;;;;;;8.37;7.50;;;;;;;;;;6378707;22;20371;-74
2021/09/21 13:14:43;;;;;;;8.33;7.63;;;;;;;;;;6378789;22;20371;-74
2021/09/21 13:17:09;;;;;;;8.03;7.40;;;;;;;;;;6368164;22;20430;-74
2021/09/21 13:19:35;;;;;;;7.70;7.00;;;;;;;;;;6378807;22;20360;-73
2021/09/21 13:22:01;;;;;;;8.00;7.30;;;;;;;;;;6368273;22;20371;-74
2021/09/21 13:24:27;;;;;;;7.60;6.90;;;;;;;;;;6378630;22;20497;-74
2021/09/21 13:26:53;;;;;;;8.20;7.53;;;;;;;;;;6378352;22;20431;-73
2021/09/21 13:29:19;;;;;;;7.50;6.83;;;;;;;;;;6378596;22;20355;-73
2021/09/21 13:31:45;;;;;;;8.50;7.30;;;;;;;;;;6375716;22;20363;-69
2021/09/21 13:34:11;;;;;;;8.63;7.73;;;;;;;;;;6377029;22;20729;-71
2021/09/21 13:36:37;;;;;;;8.00;7.30;;;;;;;;;;6377262;22;20426;-72
2021/09/21 13:42:06;;;;;;;8.30;7.50;;;;;;;;;;6377461;22;20366;-72
2021/09/21 13:44:33;;;;;;;8.77;7.97;;;;;;;;;;6366827;22;21009;-71
2021/09/21 13:46:59;;;;;;;8.30;7.20;;;;;;;;;;6377388;22;20378;-71
2021/09/21 13:49:25;;;;;;;8.53;7.60;;;;;;;;;;6377480;22;20359;-71
2021/09/21 13:51:51;;;;;;;7.60;6.90;;;;;;;;;;6377541;22;20369;-71
2021/09/21 13:57:21;;;;;;;7.50;6.70;;;;;;;;;;6377120;22;20429;-71
2021/09/21 13:59:46;;;;;;;9.43;8.50;;;;;;;;;;6367865;22;20466;-72
2021/09/21 14:02:12;;;;;;;10.47;6.93;;;;;;;;;;6340335;22;20426;-73
2021/09/21 14:04:39;;;;;;;8.13;7.33;;;;;;;;;;6378626;22;20370;-72
2021/09/21 14:07:05;;;;;;;7.67;6.63;;;;;;;;;;6378026;22;20374;-73
2021/09/21 14:12:36;;;;;;;8.10;7.17;;;;;;;;;;6376360;22;20864;-71
2021/09/21 14:15:04;;;;;;;7.57;6.87;;;;;;;;;;6376922;22;20363;-72
2021/09/21 14:17:34;;;;;;;7.47;6.77;;;;;;;;;;6338697;22;20791;-74
2021/09/21 14:20:00;;;;;;;8.20;7.20;;;;;;;;;;6377158;22;20378;-72
2021/09/21 14:22:26;;;;;;;7.10;6.40;;;;;;;;;;6376991;22;20428;-72
2021/09/21 14:24:53;;;;;;;6.97;6.27;;;;;;;;;;6377962;22;20367;-71
2021/09/21 14:27:20;;;;;;;7.10;6.40;;;;;;;;;;6368098;22;20594;-72
2021/09/21 14:29:46;;;;;;;7.80;7.00;;;;;;;;;;6379046;22;20398;-72
2021/09/21 14:32:13;;;;;;;7.00;6.40;;;;;;;;;;6368978;22;20399;-72
2021/09/21 14:34:39;;;;;;;8.00;5.80;;;;;;;;;;6380698;22;20364;-72
2021/09/21 14:37:05;;;;;;;7.87;6.30;;;;;;;;;;6379388;22;20430;-73
2021/09/21 14:42:35;;;;;;;6.40;5.90;;;;;;;;;;6378881;22;20374;-73
2021/09/21 14:45:02;;;;;;;8.30;6.87;;;;;;;;;;6379017;22;20363;-72
2021/09/21 14:47:28;;;;;;;7.67;7.07;;;;;;;;;;6379054;22;20382;-73
2021/09/21 14:49:54;;;;;;;7.47;6.70;;;;;;;;;;6368737;22;20447;-72
2021/09/21 14:52:20;;;;;;;8.77;8.00;;;;;;;;;;6379162;22;20789;-72
2021/09/21 14:57:50;;;;;;;7.13;6.47;;;;;;;;;;6379159;22;20390;-73
2021/09/21 15:00:18;;;;;;;7.93;6.00;;;;;;;;;;6379531;22;20364;-73
2021/09/21 15:02:44;;;;;;;7.50;6.60;;;;;;;;;;6378755;22;20420;-73
2021/09/21 15:05:10;;;;;;;7.40;6.70;;;;;;;;;;6379163;22;20415;-73
2021/09/21 15:07:36;;;;;;;7.83;7.03;;;;;;;;;;6378852;22;20377;-73
2021/09/21 15:13:06;;;;;;;7.43;6.70;;;;;;;;;;6379144;22;20373;-72
2021/09/21 15:15:32;;;;;;;8.07;7.00;;;;;;;;;;6368510;22;20423;-73
2021/09/21 15:17:59;;;;;;;7.00;6.30;;;;;;;;;;6379372;22;20376;-72
2021/09/21 15:20:25;;;;;;;7.53;6.83;;;;;;;;;;6369793;22;20359;-72
2021/09/21 15:22:51;;;;;;;7.43;6.70;;;;;;;;;;6380399;22;20398;-73
2021/09/21 15:25:17;;;;;;;6.90;6.30;;;;;;;;;;6370191;22;20367;-72
2021/09/21 15:27:44;;;;;;;7.73;7.10;;;;;;;;;;6341491;22;20529;-72
2021/09/21 15:30:12;;;;;;;8.50;7.70;;;;;;;;;;6369826;22;20395;-72
2021/09/21 15:32:38;;;;;;;8.37;7.67;;;;;;;;;;6380394;22;20416;-72
2021/09/21 15:35:06;;;;;;;15.63;9.27;;;;;;;;;;6380219;22;20747;-71
2021/09/21 15:37:32;;;;;;;9.77;7.23;;;;;;;;;;6378367;22;20458;-72
2021/09/21 15:43:02;;;;;;;7.73;7.00;;;;;;;;;;6379966;22;20743;-71
2021/09/21 15:45:28;;;;;;;8.83;6.70;;;;;;;;;;6379206;22;20363;-72
2021/09/21 15:47:55;;;;;;;7.73;6.93;;;;;;;;;;6380099;22;20849;-71
2021/09/21 15:50:21;;;;;;;8.77;7.97;;;;;;;;;;6380020;22;20391;-71
2021/09/21 15:52:48;;;;;;;8.13;7.33;;;;;;;;;;6380686;22;20368;-74
2021/09/21 15:58:17;;;;;;;7.20;6.60;;;;;;;;;;6381154;22;20386;-70
2021/09/21 16:00:43;;;;;;;9.10;8.20;;;;;;;;;;6381272;22;20424;-73
2021/09/21 16:03:09;;;;;;;9.23;8.20;;;;;;;;;;6380565;22;20363;-73
2021/09/21 16:05:36;;;;;;;8.10;7.40;;;;;;;;;;6342193;22;20383;-72
2021/09/21 16:08:02;;;;;;;7.63;6.93;;;;;;;;;;6381088;22;20367;-73
2021/09/21 16:13:32;;;;;;;8.50;7.70;;;;;;;;;;6380991;22;20466;-72
2021/09/21 16:15:58;;;;;;;8.20;7.40;;;;;;;;;;6380701;22;20414;-73
2021/09/21 16:18:24;;;;;;;8.40;6.77;;;;;;;;;;6381032;22;20371;-70
2021/09/21 16:20:51;;;;;;;8.27;7.50;;;;;;;;;;6370725;22;20363;-70
2021/09/21 16:23:17;;;;;;;9.13;8.20;;;;;;;;;;6380967;22;20455;-70
2021/09/21 16:28:47;;;;;;;7.87;7.17;;;;;;;;;;6380127;22;20429;-70
2021/09/21 16:31:17;;;;;;;7.13;6.53;;;;;;;;;;6370581;22;20425;-70
2021/09/21 16:33:44;;;;;;;8.00;7.10;;;;;;;;;;6380937;22;20734;-71
2021/09/21 16:36:11;;;;;;;9.00;7.40;;;;;;;;;;6380463;22;20411;-71
2021/09/21 16:38:38;;;;;;;7.70;6.90;;;;;;;;;;6370644;22;20436;-71
2021/09/21 16:41:07;;;;;;;7.20;6.33;;;;;;;;;;6380724;22;20359;-71
2021/09/21 16:43:34;;;;;;;8.37;6.13;;;;;;;;;;6380214;22;20367;-70
2021/09/21 16:46:00;;;;;;;10.13;6.20;;;;;;;;;;6380800;22;20359;-75
2021/09/21 16:48:27;;;;;;;7.80;7.10;;;;;;;;;;6380696;22;20370;-69
2021/09/21 16:50:53;;;;;;;9.33;6.23;;;;;;;;;;6380822;22;20379;-72
2021/09/21 16:53:20;;;;;;;6.70;6.20;;;;;;;;;;6369928;22;20374;-72
2021/09/21 16:58:50;;;;;;;6.93;6.23;;;;;;;;;;6380385;22;20373;-73
2021/09/21 17:01:17;;;;;;;7.13;6.50;;;;;;;;;;6369359;22;20826;-75
2021/09/21 17:03:46;;;;;;;6.30;5.70;;;;;;;;;;6341753;22;20807;-73
2021/09/21 17:06:15;;;;;;;8.30;7.40;;;;;;;;;;6380464;22;20830;-71